sensor_id;sensor_type;location;lat;lon;timestamp;P1;durP1;ratioP1;P2;durP2;ratioP2
69203;SDS011;56317;27.658;85.326;2022-12-07T00:01:16;98.90;;;52.58;;
69203;SDS011;56317;27.658;85.326;2022-12-07T00:03:45;97.15;;;51.42;;
69203;SDS011;56317;27.658;85.326;2022-12-07T00:06:14;92.25;;;49.83;;
69203;SDS011;56317;27.658;85.326;2022-12-07T00:08:43;88.57;;;51.25;;
69203;SDS011;56317;27.658;85.326;2022-12-07T00:11:15;91.10;;;51.35;;
69203;SDS011;56317;27.658;85.326;2022-12-07T00:13:44;90.78;;;50.40;;
69203;SDS011;56317;27.658;85.326;2022-12-07T00:16:16;104.80;;;56.90;;
69203;SDS011;56317;27.658;85.326;2022-12-07T00:18:45;106.55;;;55.92;;
69203;SDS011;56317;27.658;85.326;2022-12-07T00:21:17;96.45;;;53.55;;
69203;SDS011;56317;27.658;85.326;2022-12-07T00:23:46;96.10;;;52.75;;
69203;SDS011;56317;27.658;85.326;2022-12-07T00:26:15;105.72;;;54.47;;
69203;SDS011;56317;27.658;85.326;2022-12-07T00:28:46;98.00;;;53.25;;
69203;SDS011;56317;27.658;85.326;2022-12-07T00:31:18;95.82;;;53.25;;
69203;SDS011;56317;27.658;85.326;2022-12-07T00:33:46;109.75;;;56.47;;
69203;SDS011;56317;27.658;85.326;2022-12-07T00:36:15;82.68;;;46.85;;
69203;SDS011;56317;27.658;85.326;2022-12-07T00:38:44;100.55;;;54.67;;
69203;SDS011;56317;27.658;85.326;2022-12-07T00:43:39;98.45;;;59.10;;
69203;SDS011;56317;27.658;85.326;2022-12-07T00:46:08;105.85;;;57.85;;
69203;SDS011;56317;27.658;85.326;2022-12-07T00:48:35;93.55;;;56.22;;
69203;SDS011;56317;27.658;85.326;2022-12-07T00:51:03;106.25;;;56.97;;
69203;SDS011;56317;27.658;85.326;2022-12-07T00:53:31;118.57;;;60.13;;
69203;SDS011;56317;27.658;85.326;2022-12-07T00:56:07;109.65;;;58.00;;
69203;SDS011;56317;27.658;85.326;2022-12-07T00:58:37;113.55;;;58.25;;
69203;SDS011;56317;27.658;85.326;2022-12-07T01:01:04;109.63;;;58.53;;
69203;SDS011;56317;27.658;85.326;2022-12-07T01:03:33;97.95;;;55.00;;
69203;SDS011;56317;27.658;85.326;2022-12-07T01:06:01;130.75;;;61.42;;
69203;SDS011;56317;27.658;85.326;2022-12-07T01:08:29;120.28;;;61.05;;
69203;SDS011;56317;27.658;85.326;2022-12-07T01:11:06;114.05;;;61.63;;
69203;SDS011;56317;27.658;85.326;2022-12-07T01:13:35;101.28;;;57.55;;
69203;SDS011;56317;27.658;85.326;2022-12-07T01:16:03;100.78;;;59.55;;
69203;SDS011;56317;27.658;85.326;2022-12-07T01:18:33;116.03;;;62.90;;
69203;SDS011;56317;27.658;85.326;2022-12-07T01:21:03;131.02;;;66.40;;
69203;SDS011;56317;27.658;85.326;2022-12-07T01:23:33;158.53;;;72.30;;
69203;SDS011;56317;27.658;85.326;2022-12-07T01:26:03;150.38;;;68.13;;
69203;SDS011;56317;27.658;85.326;2022-12-07T01:28:32;95.85;;;50.85;;
69203;SDS011;56317;27.658;85.326;2022-12-07T01:31:01;168.50;;;77.20;;
69203;SDS011;56317;27.658;85.326;2022-12-07T01:33:32;154.70;;;73.53;;
69203;SDS011;56317;27.658;85.326;2022-12-07T01:36:01;193.48;;;95.43;;
69203;SDS011;56317;27.658;85.326;2022-12-07T01:38:39;203.07;;;100.47;;
69203;SDS011;56317;27.658;85.326;2022-12-07T01:41:06;160.27;;;81.10;;
69203;SDS011;56317;27.658;85.326;2022-12-07T01:43:34;117.05;;;66.30;;
69203;SDS011;56317;27.658;85.326;2022-12-07T01:46:02;123.28;;;68.55;;
69203;SDS011;56317;27.658;85.326;2022-12-07T01:48:32;113.80;;;69.65;;
69203;SDS011;56317;27.658;85.326;2022-12-07T01:51:05;119.43;;;71.82;;
69203;SDS011;56317;27.658;85.326;2022-12-07T01:53:38;121.97;;;71.13;;
69203;SDS011;56317;27.658;85.326;2022-12-07T01:56:12;201.32;;;112.80;;
69203;SDS011;56317;27.658;85.326;2022-12-07T01:58:46;278.67;;;156.25;;
69203;SDS011;56317;27.658;85.326;2022-12-07T02:01:15;264.73;;;136.98;;
69203;SDS011;56317;27.658;85.326;2022-12-07T02:03:42;183.48;;;102.97;;
69203;SDS011;56317;27.658;85.326;2022-12-07T02:06:12;124.82;;;76.38;;
69203;SDS011;56317;27.658;85.326;2022-12-07T02:08:42;144.73;;;78.72;;
69203;SDS011;56317;27.658;85.326;2022-12-07T02:11:10;124.20;;;77.40;;
69203;SDS011;56317;27.658;85.326;2022-12-07T02:13:39;122.43;;;72.13;;
69203;SDS011;56317;27.658;85.326;2022-12-07T02:27:40;130.57;;;72.05;;
69203;SDS011;56317;27.658;85.326;2022-12-07T02:30:13;98.75;;;61.42;;
69203;SDS011;56317;27.658;85.326;2022-12-07T02:33:03;99.65;;;62.45;;
69203;SDS011;56317;27.658;85.326;2022-12-07T02:35:48;106.57;;;61.97;;
69203;SDS011;56317;27.658;85.326;2022-12-07T02:44:04;102.65;;;62.63;;
69203;SDS011;56317;27.658;85.326;2022-12-07T02:46:40;94.15;;;61.95;;
69203;SDS011;56317;27.658;85.326;2022-12-07T02:49:15;94.60;;;57.88;;
69203;SDS011;56317;27.658;85.326;2022-12-07T02:51:44;101.47;;;59.88;;
69203;SDS011;56317;27.658;85.326;2022-12-07T02:54:19;83.97;;;56.60;;
69203;SDS011;56317;27.658;85.326;2022-12-07T03:05:25;89.80;;;55.85;;
69203;SDS011;56317;27.658;85.326;2022-12-07T03:08:13;79.43;;;50.70;;
69203;SDS011;56317;27.658;85.326;2022-12-07T03:10:56;93.70;;;54.78;;
69203;SDS011;56317;27.658;85.326;2022-12-07T03:16:25;89.57;;;51.05;;
69203;SDS011;56317;27.658;85.326;2022-12-07T03:18:58;87.70;;;54.63;;
69203;SDS011;56317;27.658;85.326;2022-12-07T03:21:34;86.28;;;52.22;;
69203;SDS011;56317;27.658;85.326;2022-12-07T03:24:19;72.15;;;46.55;;
69203;SDS011;56317;27.658;85.326;2022-12-07T03:26:51;80.55;;;44.67;;
69203;SDS011;56317;27.658;85.326;2022-12-07T03:29:27;72.90;;;43.38;;
69203;SDS011;56317;27.658;85.326;2022-12-07T03:32:02;73.03;;;44.30;;
69203;SDS011;56317;27.658;85.326;2022-12-07T03:34:40;70.63;;;40.53;;
69203;SDS011;56317;27.658;85.326;2022-12-07T03:37:17;60.88;;;40.10;;
69203;SDS011;56317;27.658;85.326;2022-12-07T03:42:56;64.80;;;39.83;;
69203;SDS011;56317;27.658;85.326;2022-12-07T03:45:41;69.97;;;40.30;;
69203;SDS011;56317;27.658;85.326;2022-12-07T03:54:01;68.50;;;44.47;;
69203;SDS011;56317;27.658;85.326;2022-12-07T03:56:34;68.43;;;43.70;;
69203;SDS011;56317;27.658;85.326;2022-12-07T03:59:03;67.32;;;44.65;;
69203;SDS011;56317;27.658;85.326;2022-12-07T04:01:31;70.72;;;42.03;;
69203;SDS011;56317;27.658;85.326;2022-12-07T04:03:58;69.75;;;42.13;;
69203;SDS011;56317;27.658;85.326;2022-12-07T04:06:26;70.60;;;42.28;;
69203;SDS011;56317;27.658;85.326;2022-12-07T04:08:53;63.83;;;42.88;;
69203;SDS011;56317;27.658;85.326;2022-12-07T04:11:20;60.67;;;38.60;;
69203;SDS011;56317;27.658;85.326;2022-12-07T04:13:48;61.85;;;38.35;;
69203;SDS011;56317;27.658;85.326;2022-12-07T04:16:33;60.97;;;38.97;;
69203;SDS011;56317;27.658;85.326;2022-12-07T04:19:01;71.80;;;45.45;;
69203;SDS011;56317;27.658;85.326;2022-12-07T04:21:29;72.88;;;47.45;;
69203;SDS011;56317;27.658;85.326;2022-12-07T04:23:56;71.95;;;45.80;;
69203;SDS011;56317;27.658;85.326;2022-12-07T04:26:23;61.10;;;44.03;;
69203;SDS011;56317;27.658;85.326;2022-12-07T04:28:51;75.45;;;43.53;;
69203;SDS011;56317;27.658;85.326;2022-12-07T04:31:18;72.53;;;45.03;;
69203;SDS011;56317;27.658;85.326;2022-12-07T04:33:45;64.55;;;39.28;;
69203;SDS011;56317;27.658;85.326;2022-12-07T04:36:13;62.92;;;40.85;;
69203;SDS011;56317;27.658;85.326;2022-12-07T04:38:40;56.10;;;38.65;;
69203;SDS011;56317;27.658;85.326;2022-12-07T04:41:08;58.67;;;38.03;;
69203;SDS011;56317;27.658;85.326;2022-12-07T04:43:35;58.13;;;38.53;;
69203;SDS011;56317;27.658;85.326;2022-12-07T04:46:03;67.50;;;35.90;;
69203;SDS011;56317;27.658;85.326;2022-12-07T04:48:30;51.53;;;33.78;;
69203;SDS011;56317;27.658;85.326;2022-12-07T04:51:01;51.33;;;33.88;;
69203;SDS011;56317;27.658;85.326;2022-12-07T04:53:35;53.90;;;35.60;;
69203;SDS011;56317;27.658;85.326;2022-12-07T04:56:02;50.85;;;32.88;;
69203;SDS011;56317;27.658;85.326;2022-12-07T04:58:29;48.47;;;30.73;;
69203;SDS011;56317;27.658;85.326;2022-12-07T05:01:02;42.38;;;28.00;;
69203;SDS011;56317;27.658;85.326;2022-12-07T05:03:30;45.55;;;29.33;;
69203;SDS011;56317;27.658;85.326;2022-12-07T05:05:57;47.55;;;32.92;;
69203;SDS011;56317;27.658;85.326;2022-12-07T05:08:24;47.45;;;30.73;;
69203;SDS011;56317;27.658;85.326;2022-12-07T05:10:51;48.38;;;31.42;;
69203;SDS011;56317;27.658;85.326;2022-12-07T05:13:19;57.28;;;29.92;;
69203;SDS011;56317;27.658;85.326;2022-12-07T05:15:47;45.00;;;29.35;;
69203;SDS011;56317;27.658;85.326;2022-12-07T05:20:44;41.70;;;27.88;;
69203;SDS011;56317;27.658;85.326;2022-12-07T05:23:11;48.88;;;29.45;;
69203;SDS011;56317;27.658;85.326;2022-12-07T05:25:39;46.15;;;29.48;;
69203;SDS011;56317;27.658;85.326;2022-12-07T05:28:10;45.88;;;29.65;;
69203;SDS011;56317;27.658;85.326;2022-12-07T05:30:37;42.67;;;27.63;;
69203;SDS011;56317;27.658;85.326;2022-12-07T05:33:05;43.65;;;26.70;;
69203;SDS011;56317;27.658;85.326;2022-12-07T05:35:32;46.92;;;27.92;;
69203;SDS011;56317;27.658;85.326;2022-12-07T05:37:59;38.95;;;25.52;;
69203;SDS011;56317;27.658;85.326;2022-12-07T05:40:26;39.67;;;20.88;;
69203;SDS011;56317;27.658;85.326;2022-12-07T05:42:54;29.00;;;20.52;;
69203;SDS011;56317;27.658;85.326;2022-12-07T05:45:21;27.70;;;19.88;;
69203;SDS011;56317;27.658;85.326;2022-12-07T05:47:48;29.98;;;21.13;;
69203;SDS011;56317;27.658;85.326;2022-12-07T05:50:16;31.05;;;20.73;;
69203;SDS011;56317;27.658;85.326;2022-12-07T05:52:43;33.28;;;19.67;;
69203;SDS011;56317;27.658;85.326;2022-12-07T05:55:10;28.45;;;20.15;;
69203;SDS011;56317;27.658;85.326;2022-12-07T05:57:37;27.10;;;19.45;;
69203;SDS011;56317;27.658;85.326;2022-12-07T06:00:05;25.92;;;19.63;;
69203;SDS011;56317;27.658;85.326;2022-12-07T06:02:33;29.65;;;19.55;;
69203;SDS011;56317;27.658;85.326;2022-12-07T06:05:00;33.53;;;19.65;;
69203;SDS011;56317;27.658;85.326;2022-12-07T06:07:27;32.63;;;19.38;;
69203;SDS011;56317;27.658;85.326;2022-12-07T06:09:55;37.45;;;22.33;;
69203;SDS011;56317;27.658;85.326;2022-12-07T06:12:22;38.13;;;21.55;;
69203;SDS011;56317;27.658;85.326;2022-12-07T06:15:04;33.00;;;19.90;;
69203;SDS011;56317;27.658;85.326;2022-12-07T06:17:35;25.50;;;19.13;;
69203;SDS011;56317;27.658;85.326;2022-12-07T06:20:04;26.92;;;18.83;;
69203;SDS011;56317;27.658;85.326;2022-12-07T06:22:32;24.90;;;16.63;;
69203;SDS011;56317;27.658;85.326;2022-12-07T06:24:59;41.63;;;26.27;;
69203;SDS011;56317;27.658;85.326;2022-12-07T06:27:27;28.98;;;19.05;;
69203;SDS011;56317;27.658;85.326;2022-12-07T06:29:54;30.27;;;16.13;;
69203;SDS011;56317;27.658;85.326;2022-12-07T06:32:21;26.98;;;14.85;;
69203;SDS011;56317;27.658;85.326;2022-12-07T06:34:48;28.60;;;14.77;;
69203;SDS011;56317;27.658;85.326;2022-12-07T06:37:19;19.98;;;14.60;;
69203;SDS011;56317;27.658;85.326;2022-12-07T06:39:46;24.83;;;15.20;;
69203;SDS011;56317;27.658;85.326;2022-12-07T06:42:13;19.33;;;13.57;;
69203;SDS011;56317;27.658;85.326;2022-12-07T06:44:40;18.55;;;13.60;;
69203;SDS011;56317;27.658;85.326;2022-12-07T06:47:08;27.40;;;15.02;;
69203;SDS011;56317;27.658;85.326;2022-12-07T06:49:37;29.30;;;14.80;;
69203;SDS011;56317;27.658;85.326;2022-12-07T06:52:04;30.17;;;15.00;;
69203;SDS011;56317;27.658;85.326;2022-12-07T06:54:31;21.60;;;14.10;;
69203;SDS011;56317;27.658;85.326;2022-12-07T06:57:02;16.50;;;11.60;;
69203;SDS011;56317;27.658;85.326;2022-12-07T06:59:29;29.40;;;13.25;;
69203;SDS011;56317;27.658;85.326;2022-12-07T07:01:56;25.00;;;12.75;;
69203;SDS011;56317;27.658;85.326;2022-12-07T07:04:24;19.95;;;11.75;;
69203;SDS011;56317;27.658;85.326;2022-12-07T07:06:51;24.65;;;14.13;;
69203;SDS011;56317;27.658;85.326;2022-12-07T07:09:18;24.63;;;14.25;;
69203;SDS011;56317;27.658;85.326;2022-12-07T07:11:45;23.48;;;14.50;;
69203;SDS011;56317;27.658;85.326;2022-12-07T07:14:13;24.25;;;13.15;;
69203;SDS011;56317;27.658;85.326;2022-12-07T07:16:44;21.60;;;12.40;;
69203;SDS011;56317;27.658;85.326;2022-12-07T07:19:11;22.65;;;12.27;;
69203;SDS011;56317;27.658;85.326;2022-12-07T07:21:39;24.67;;;11.95;;
69203;SDS011;56317;27.658;85.326;2022-12-07T07:24:06;25.42;;;12.60;;
69203;SDS011;56317;27.658;85.326;2022-12-07T07:26:34;19.02;;;11.68;;
69203;SDS011;56317;27.658;85.326;2022-12-07T07:29:01;18.00;;;11.50;;
69203;SDS011;56317;27.658;85.326;2022-12-07T07:31:28;17.80;;;11.93;;
69203;SDS011;56317;27.658;85.326;2022-12-07T07:33:56;21.58;;;12.65;;
69203;SDS011;56317;27.658;85.326;2022-12-07T07:36:23;27.83;;;15.80;;
69203;SDS011;56317;27.658;85.326;2022-12-07T07:38:50;26.05;;;16.45;;
69203;SDS011;56317;27.658;85.326;2022-12-07T07:41:18;30.63;;;16.88;;
69203;SDS011;56317;27.658;85.326;2022-12-07T07:43:45;31.92;;;17.20;;
69203;SDS011;56317;27.658;85.326;2022-12-07T07:46:13;22.42;;;13.65;;
69203;SDS011;56317;27.658;85.326;2022-12-07T07:48:40;28.02;;;14.48;;
69203;SDS011;56317;27.658;85.326;2022-12-07T07:53:37;27.38;;;16.58;;
69203;SDS011;56317;27.658;85.326;2022-12-07T07:56:04;29.17;;;15.93;;
69203;SDS011;56317;27.658;85.326;2022-12-07T07:58:31;22.63;;;14.70;;
69203;SDS011;56317;27.658;85.326;2022-12-07T08:01:05;19.95;;;13.07;;
69203;SDS011;56317;27.658;85.326;2022-12-07T08:03:33;24.95;;;14.32;;
69203;SDS011;56317;27.658;85.326;2022-12-07T08:06:01;22.17;;;11.70;;
69203;SDS011;56317;27.658;85.326;2022-12-07T08:08:29;18.38;;;8.18;;
69203;SDS011;56317;27.658;85.326;2022-12-07T08:10:56;15.82;;;8.60;;
69203;SDS011;56317;27.658;85.326;2022-12-07T08:13:27;19.23;;;8.93;;
69203;SDS011;56317;27.658;85.326;2022-12-07T08:15:54;23.20;;;9.73;;
69203;SDS011;56317;27.658;85.326;2022-12-07T08:18:21;16.25;;;7.75;;
69203;SDS011;56317;27.658;85.326;2022-12-07T08:20:49;13.63;;;8.13;;
69203;SDS011;56317;27.658;85.326;2022-12-07T08:23:16;22.63;;;8.65;;
69203;SDS011;56317;27.658;85.326;2022-12-07T08:25:47;15.13;;;7.75;;
69203;SDS011;56317;27.658;85.326;2022-12-07T08:28:15;22.30;;;8.30;;
69203;SDS011;56317;27.658;85.326;2022-12-07T08:30:42;16.92;;;7.20;;
69203;SDS011;56317;27.658;85.326;2022-12-07T08:33:10;16.70;;;7.72;;
69203;SDS011;56317;27.658;85.326;2022-12-07T08:35:37;16.20;;;8.13;;
69203;SDS011;56317;27.658;85.326;2022-12-07T08:38:05;14.30;;;7.65;;
69203;SDS011;56317;27.658;85.326;2022-12-07T08:40:32;18.20;;;8.20;;
69203;SDS011;56317;27.658;85.326;2022-12-07T08:42:59;20.67;;;8.43;;
69203;SDS011;56317;27.658;85.326;2022-12-07T08:45:26;16.63;;;8.32;;
69203;SDS011;56317;27.658;85.326;2022-12-07T08:48:00;18.33;;;8.25;;
69203;SDS011;56317;27.658;85.326;2022-12-07T08:50:33;21.27;;;7.75;;
69203;SDS011;56317;27.658;85.326;2022-12-07T08:53:02;27.77;;;18.88;;
69203;SDS011;56317;27.658;85.326;2022-12-07T08:55:30;23.10;;;8.70;;
69203;SDS011;56317;27.658;85.326;2022-12-07T08:57:58;12.70;;;7.65;;
69203;SDS011;56317;27.658;85.326;2022-12-07T09:00:26;21.45;;;8.10;;
69203;SDS011;56317;27.658;85.326;2022-12-07T09:02:54;22.90;;;8.55;;
69203;SDS011;56317;27.658;85.326;2022-12-07T09:05:22;22.38;;;8.52;;
69203;SDS011;56317;27.658;85.326;2022-12-07T09:07:51;14.82;;;7.65;;
69203;SDS011;56317;27.658;85.326;2022-12-07T09:10:22;19.70;;;7.60;;
69203;SDS011;56317;27.658;85.326;2022-12-07T09:12:49;22.25;;;8.10;;
69203;SDS011;56317;27.658;85.326;2022-12-07T09:15:21;26.17;;;8.82;;
69203;SDS011;56317;27.658;85.326;2022-12-07T09:17:49;24.45;;;8.60;;
69203;SDS011;56317;27.658;85.326;2022-12-07T09:20:16;22.42;;;8.23;;
69203;SDS011;56317;27.658;85.326;2022-12-07T09:22:43;27.10;;;9.07;;
69203;SDS011;56317;27.658;85.326;2022-12-07T09:25:10;20.27;;;7.45;;
69203;SDS011;56317;27.658;85.326;2022-12-07T09:27:41;32.85;;;8.93;;
69203;SDS011;56317;27.658;85.326;2022-12-07T09:30:08;26.95;;;8.75;;
69203;SDS011;56317;27.658;85.326;2022-12-07T09:32:35;25.50;;;10.35;;
69203;SDS011;56317;27.658;85.326;2022-12-07T09:35:03;25.80;;;9.20;;
69203;SDS011;56317;27.658;85.326;2022-12-07T09:37:30;27.38;;;8.57;;
69203;SDS011;56317;27.658;85.326;2022-12-07T09:40:01;22.08;;;8.85;;
69203;SDS011;56317;27.658;85.326;2022-12-07T09:42:29;21.27;;;8.82;;
69203;SDS011;56317;27.658;85.326;2022-12-07T09:45:14;21.80;;;8.75;;
69203;SDS011;56317;27.658;85.326;2022-12-07T09:47:59;23.40;;;9.38;;
69203;SDS011;56317;27.658;85.326;2022-12-07T09:50:29;23.75;;;9.13;;
69203;SDS011;56317;27.658;85.326;2022-12-07T09:53:30;27.42;;;9.98;;
69203;SDS011;56317;27.658;85.326;2022-12-07T09:55:58;21.85;;;8.75;;
69203;SDS011;56317;27.658;85.326;2022-12-07T09:58:27;22.45;;;9.18;;
69203;SDS011;56317;27.658;85.326;2022-12-07T10:01:16;29.58;;;10.25;;
69203;SDS011;56317;27.658;85.326;2022-12-07T10:03:52;30.38;;;9.27;;
69203;SDS011;56317;27.658;85.326;2022-12-07T10:06:38;27.42;;;10.00;;
69203;SDS011;56317;27.658;85.326;2022-12-07T10:09:10;20.98;;;8.02;;
69203;SDS011;56317;27.658;85.326;2022-12-07T10:14:59;26.05;;;11.45;;
69203;SDS011;56317;27.658;85.326;2022-12-07T10:20:24;30.42;;;11.18;;
69203;SDS011;56317;27.658;85.326;2022-12-07T10:23:08;18.67;;;9.65;;
69203;SDS011;56317;27.658;85.326;2022-12-07T10:25:42;23.75;;;11.38;;
69203;SDS011;56317;27.658;85.326;2022-12-07T10:28:11;32.83;;;11.82;;
69203;SDS011;56317;27.658;85.326;2022-12-07T10:30:51;26.77;;;12.70;;
69203;SDS011;56317;27.658;85.326;2022-12-07T10:33:33;37.95;;;15.15;;
69203;SDS011;56317;27.658;85.326;2022-12-07T10:36:02;30.60;;;14.35;;
69203;SDS011;56317;27.658;85.326;2022-12-07T10:38:47;41.92;;;14.25;;
69203;SDS011;56317;27.658;85.326;2022-12-07T10:41:18;54.85;;;16.05;;
69203;SDS011;56317;27.658;85.326;2022-12-07T10:43:50;44.17;;;16.05;;
69203;SDS011;56317;27.658;85.326;2022-12-07T10:49:31;46.00;;;18.08;;
69203;SDS011;56317;27.658;85.326;2022-12-07T10:55:06;31.55;;;17.33;;
69203;SDS011;56317;27.658;85.326;2022-12-07T11:00:29;33.85;;;16.50;;
69203;SDS011;56317;27.658;85.326;2022-12-07T11:06:27;34.88;;;15.02;;
69203;SDS011;56317;27.658;85.326;2022-12-07T11:09:25;37.67;;;15.68;;
69203;SDS011;56317;27.658;85.326;2022-12-07T11:18:09;28.55;;;16.42;;
69203;SDS011;56317;27.658;85.326;2022-12-07T11:24:04;61.28;;;27.63;;
69203;SDS011;56317;27.658;85.326;2022-12-07T11:27:00;60.83;;;25.50;;
69203;SDS011;56317;27.658;85.326;2022-12-07T11:30:14;56.35;;;26.00;;
69203;SDS011;56317;27.658;85.326;2022-12-07T11:36:07;50.92;;;24.83;;
69203;SDS011;56317;27.658;85.326;2022-12-07T11:42:16;44.45;;;26.80;;
69203;SDS011;56317;27.658;85.326;2022-12-07T11:45:12;63.63;;;25.95;;
69203;SDS011;56317;27.658;85.326;2022-12-07T11:47:59;49.05;;;23.30;;
69203;SDS011;56317;27.658;85.326;2022-12-07T11:55:43;38.20;;;20.10;;
69203;SDS011;56317;27.658;85.326;2022-12-07T12:03:45;39.67;;;21.08;;
69203;SDS011;56317;27.658;85.326;2022-12-07T12:06:15;53.95;;;22.92;;
69203;SDS011;56317;27.658;85.326;2022-12-07T12:14:37;43.90;;;22.85;;
69203;SDS011;56317;27.658;85.326;2022-12-07T12:23:01;94.20;;;46.47;;
69203;SDS011;56317;27.658;85.326;2022-12-07T12:25:42;67.68;;;33.95;;
69203;SDS011;56317;27.658;85.326;2022-12-07T12:28:29;95.50;;;49.43;;
69203;SDS011;56317;27.658;85.326;2022-12-07T12:33:59;78.10;;;40.30;;
69203;SDS011;56317;27.658;85.326;2022-12-07T12:46:54;68.28;;;28.58;;
69203;SDS011;56317;27.658;85.326;2022-12-07T13:00:46;83.57;;;35.53;;
69203;SDS011;56317;27.658;85.326;2022-12-07T13:03:33;57.88;;;24.77;;
69203;SDS011;56317;27.658;85.326;2022-12-07T13:06:20;37.50;;;20.90;;
69203;SDS011;56317;27.658;85.326;2022-12-07T13:08:51;60.60;;;29.20;;
69203;SDS011;56317;27.658;85.326;2022-12-07T13:11:57;43.92;;;23.50;;
69203;SDS011;56317;27.658;85.326;2022-12-07T13:20:04;52.83;;;28.38;;
69203;SDS011;56317;27.658;85.326;2022-12-07T13:28:00;70.75;;;36.72;;
69203;SDS011;56317;27.658;85.326;2022-12-07T13:30:40;90.72;;;45.92;;
69203;SDS011;56317;27.658;85.326;2022-12-07T13:33:36;46.97;;;24.48;;
69203;SDS011;56317;27.658;85.326;2022-12-07T13:36:08;45.50;;;24.02;;
69203;SDS011;56317;27.658;85.326;2022-12-07T13:38:56;45.28;;;24.83;;
69203;SDS011;56317;27.658;85.326;2022-12-07T13:41:28;64.70;;;30.30;;
69203;SDS011;56317;27.658;85.326;2022-12-07T13:49:21;55.08;;;29.27;;
69203;SDS011;56317;27.658;85.326;2022-12-07T13:51:51;73.22;;;37.55;;
69203;SDS011;56317;27.658;85.326;2022-12-07T13:54:22;67.32;;;35.63;;
69203;SDS011;56317;27.658;85.326;2022-12-07T13:56:50;73.55;;;39.03;;
69203;SDS011;56317;27.658;85.326;2022-12-07T13:59:19;72.05;;;39.00;;
69203;SDS011;56317;27.658;85.326;2022-12-07T14:01:50;60.97;;;35.70;;
69203;SDS011;56317;27.658;85.326;2022-12-07T14:04:37;65.13;;;33.97;;
69203;SDS011;56317;27.658;85.326;2022-12-07T14:13:26;65.95;;;34.53;;
69203;SDS011;56317;27.658;85.326;2022-12-07T14:16:04;56.33;;;33.20;;
69203;SDS011;56317;27.658;85.326;2022-12-07T14:18:55;52.78;;;32.83;;
69203;SDS011;56317;27.658;85.326;2022-12-07T14:21:28;61.85;;;34.28;;
69203;SDS011;56317;27.658;85.326;2022-12-07T14:24:07;60.97;;;35.35;;
69203;SDS011;56317;27.658;85.326;2022-12-07T14:26:35;61.85;;;34.92;;
69203;SDS011;56317;27.658;85.326;2022-12-07T14:31:57;64.13;;;33.08;;
69203;SDS011;56317;27.658;85.326;2022-12-07T14:34:37;68.95;;;37.58;;
69203;SDS011;56317;27.658;85.326;2022-12-07T14:37:07;60.08;;;33.78;;
69203;SDS011;56317;27.658;85.326;2022-12-07T14:39:36;55.22;;;33.80;;
69203;SDS011;56317;27.658;85.326;2022-12-07T14:42:03;55.63;;;31.05;;
69203;SDS011;56317;27.658;85.326;2022-12-07T14:44:30;59.38;;;32.95;;
69203;SDS011;56317;27.658;85.326;2022-12-07T14:46:58;57.30;;;32.05;;
69203;SDS011;56317;27.658;85.326;2022-12-07T14:49:25;58.08;;;33.38;;
69203;SDS011;56317;27.658;85.326;2022-12-07T14:51:52;58.17;;;33.05;;
69203;SDS011;56317;27.658;85.326;2022-12-07T14:54:20;55.35;;;32.17;;
69203;SDS011;56317;27.658;85.326;2022-12-07T14:56:56;58.10;;;32.28;;
69203;SDS011;56317;27.658;85.326;2022-12-07T14:59:24;60.03;;;32.97;;
69203;SDS011;56317;27.658;85.326;2022-12-07T15:01:51;49.20;;;32.00;;
69203;SDS011;56317;27.658;85.326;2022-12-07T15:04:18;63.88;;;37.38;;
69203;SDS011;56317;27.658;85.326;2022-12-07T15:06:58;83.32;;;56.25;;
69203;SDS011;56317;27.658;85.326;2022-12-07T15:09:27;77.15;;;50.80;;
69203;SDS011;56317;27.658;85.326;2022-12-07T15:11:55;87.60;;;56.17;;
69203;SDS011;56317;27.658;85.326;2022-12-07T15:14:22;269.85;;;211.98;;
69203;SDS011;56317;27.658;85.326;2022-12-07T15:16:49;323.50;;;265.17;;
69203;SDS011;56317;27.658;85.326;2022-12-07T15:19:18;349.42;;;282.50;;
69203;SDS011;56317;27.658;85.326;2022-12-07T15:21:51;363.20;;;295.63;;
69203;SDS011;56317;27.658;85.326;2022-12-07T15:24:22;280.85;;;224.68;;
69203;SDS011;56317;27.658;85.326;2022-12-07T15:26:49;359.30;;;295.75;;
69203;SDS011;56317;27.658;85.326;2022-12-07T15:29:17;370.67;;;297.45;;
69203;SDS011;56317;27.658;85.326;2022-12-07T15:31:45;365.80;;;295.38;;
69203;SDS011;56317;27.658;85.326;2022-12-07T15:34:14;375.10;;;304.02;;
69203;SDS011;56317;27.658;85.326;2022-12-07T15:36:41;360.98;;;286.70;;
69203;SDS011;56317;27.658;85.326;2022-12-07T15:39:09;360.55;;;279.42;;
69203;SDS011;56317;27.658;85.326;2022-12-07T15:41:38;344.38;;;271.38;;
69203;SDS011;56317;27.658;85.326;2022-12-07T15:44:05;331.40;;;254.23;;
69203;SDS011;56317;27.658;85.326;2022-12-07T15:46:57;330.05;;;240.88;;
69203;SDS011;56317;27.658;85.326;2022-12-07T15:49:25;312.48;;;239.82;;
69203;SDS011;56317;27.658;85.326;2022-12-07T15:51:53;291.10;;;217.77;;
69203;SDS011;56317;27.658;85.326;2022-12-07T15:54:29;285.20;;;208.52;;
69203;SDS011;56317;27.658;85.326;2022-12-07T15:56:57;251.82;;;184.18;;
69203;SDS011;56317;27.658;85.326;2022-12-07T15:59:25;318.98;;;231.32;;
69203;SDS011;56317;27.658;85.326;2022-12-07T16:01:54;360.08;;;259.90;;
69203;SDS011;56317;27.658;85.326;2022-12-07T16:04:22;369.20;;;263.77;;
69203;SDS011;56317;27.658;85.326;2022-12-07T16:06:49;339.00;;;240.55;;
69203;SDS011;56317;27.658;85.326;2022-12-07T16:09:16;294.58;;;215.63;;
69203;SDS011;56317;27.658;85.326;2022-12-07T16:11:44;292.20;;;217.95;;
69203;SDS011;56317;27.658;85.326;2022-12-07T16:14:13;328.30;;;244.68;;
69203;SDS011;56317;27.658;85.326;2022-12-07T16:16:40;271.67;;;187.38;;
69203;SDS011;56317;27.658;85.326;2022-12-07T16:19:07;301.35;;;213.18;;
69203;SDS011;56317;27.658;85.326;2022-12-07T16:21:36;187.32;;;128.93;;
69203;SDS011;56317;27.658;85.326;2022-12-07T16:24:03;213.35;;;146.90;;
69203;SDS011;56317;27.658;85.326;2022-12-07T16:26:31;186.70;;;120.97;;
69203;SDS011;56317;27.658;85.326;2022-12-07T16:28:58;146.77;;;96.07;;
69203;SDS011;56317;27.658;85.326;2022-12-07T16:31:26;172.65;;;114.13;;
69203;SDS011;56317;27.658;85.326;2022-12-07T16:33:54;150.55;;;93.80;;
69203;SDS011;56317;27.658;85.326;2022-12-07T16:36:23;158.02;;;87.82;;
69203;SDS011;56317;27.658;85.326;2022-12-07T16:38:53;151.68;;;89.80;;
69203;SDS011;56317;27.658;85.326;2022-12-07T16:41:20;128.80;;;73.55;;
69203;SDS011;56317;27.658;85.326;2022-12-07T16:43:48;116.28;;;64.80;;
69203;SDS011;56317;27.658;85.326;2022-12-07T16:46:16;91.18;;;46.83;;
69203;SDS011;56317;27.658;85.326;2022-12-07T16:48:44;95.60;;;56.60;;
69203;SDS011;56317;27.658;85.326;2022-12-07T16:51:12;83.22;;;48.03;;
69203;SDS011;56317;27.658;85.326;2022-12-07T16:53:41;93.93;;;55.00;;
69203;SDS011;56317;27.658;85.326;2022-12-07T16:56:12;95.38;;;53.20;;
69203;SDS011;56317;27.658;85.326;2022-12-07T16:58:42;114.35;;;57.00;;
69203;SDS011;56317;27.658;85.326;2022-12-07T17:01:10;101.05;;;55.95;;